Airfield :
LOGIN :

Register | Disclaimer

   EN    FR    IT 

 










Legend :    VFR   Marginal VFR   IFR   Intensive IFR   Very Intensive IFR
Visi :
Ceiling :
>= 8 km
>= 3000ft
5 to 8 km
1000 to 3000 ft
1500m to 5 km
500 to 1000 ft
800 to 1500m
200 to 500 ft
< 800m
< 200 ft
Symbols :   Thunderstorms  Fog  Heavy snow  Heavy precipitations  Wind > 20 kt
SIGMETs :     Misc.  Thunderstorms  Icing  Turbulence  Mountain Waves  Volcanic Ashes






- Airport Elevation : 1 ft


EGCK - Caernarfon

CURRENT METAR :
  • 240820Z AUTO VRB03KT 9999 FEW021/// OVC031/// 01/M01 Q0993

EXPIRED METARs :
  • 240750Z AUTO 09005KT 030V130 9999 BKN020/// BKN032/// 01/M01 Q0993
  • 240720Z AUTO 11005KT 060V140 9999 BKN020/// OVC046/// 01/M01 Q0993
  • 240650Z AUTO 05008KT 9999 FEW002/// OVC016/// 01/M01 Q0993
  • 240620Z AUTO 04010KT 9999 BKN013/// OVC026/// 01/M01 Q0993
  • 240550Z AUTO 06009KT 3900 -SN FEW002/// OVC027/// 01/M01 Q0994
  • 240520Z AUTO 13006KT 090V200 4800 -SN FEW002/// BKN011/// OVC029/// 01/M01 Q0994

TAF AMD TAF EGCK
Valid from the 24 at 06:00 until the 24 at 15:00 UTC


240643Z 2406/2415 10009KT 9999 FEW025
TEMPO 2406/2415 6000 -SHRASN BKN008
PROB30
TEMPO 2406/2408 2000 SHRASN SHSN BKN003



MET'MAP, your aeronautical weather chart ! - Copyright ORBIFLY December 2007 - Disclaimer

ORBIFLY MET'MAP TEAM :

Programming & Development : Alexandra Zaïnal
Concept & original design : Baudouin d'Aumeries
Assistance for programming : Marc-Olivier Méhu
Technical & hardware support : Manuel Goepfert

Contact : metmap@orbifly.com




SOURCES & CREDITS :

   NOAA